Toronto, South Dakota
Current Conditions -  °F | °C
As of 3:54 PM on Friday 24 Oct 2014 (Local Time) from KCNB Reporting Station
Clear Clear  
Wind Chill: 76°   Ceiling: Unl
Heat Index: 77°   Visibility: 10mi
Dew Point: 39°   Wind: 14mph
Humidity: 26%   Direction: 290°WNW
Pressure: 29.86"   Gusts: 21mph
Location:  44.57°N, 96.64°W
Report Text: KCNB 242054Z AUTO 29012G18KT 10SM CLR 25/04 A2986 RMK AO2 T02450040
Loading
Personal Weather Stations






























Interactive Weather Map New forecast layout! Learn more

10-Day Weather Forecast

Advertisements
Track Severe Weather on mobile